createdAt,value
2023-03-26T00:00:19.165Z,80.10
2023-03-26T00:02:26.363Z,79.80
2023-03-26T00:04:34.740Z,79.60
2023-03-26T00:06:42.760Z,79.50
2023-03-26T00:08:49.943Z,79.30
2023-03-26T00:10:57.068Z,79.20
2023-03-26T00:13:06.397Z,78.90
2023-03-26T00:15:14.199Z,78.90
2023-03-26T00:17:22.250Z,78.70
2023-03-26T00:19:29.224Z,78.50
2023-03-26T00:21:36.609Z,78.20
2023-03-26T00:23:43.847Z,78.10
2023-03-26T00:25:52.125Z,77.90
2023-03-26T00:27:59.544Z,78.10
2023-03-26T00:30:09.488Z,78.00
2023-03-26T00:32:16.521Z,78.20
2023-03-26T00:34:24.095Z,78.40
2023-03-26T00:36:31.079Z,78.50
2023-03-26T00:38:39.803Z,78.70
2023-03-26T00:40:49.132Z,79.10
2023-03-26T00:42:56.164Z,79.30
2023-03-26T00:45:03.399Z,79.30
2023-03-26T00:47:12.321Z,79.20
2023-03-26T00:49:19.759Z,79.10
2023-03-26T00:51:26.992Z,79.00
2023-03-26T00:53:34.429Z,78.80
2023-03-26T00:55:42.377Z,78.40
2023-03-26T00:57:49.252Z,77.80
2023-03-26T00:59:56.538Z,77.30
2023-03-26T01:02:03.497Z,77.10
2023-03-26T01:04:32.182Z,76.80
2023-03-26T01:06:44.346Z,76.30
2023-03-26T01:08:53.935Z,75.80
2023-03-26T01:11:06.233Z,75.50
2023-03-26T01:13:14.337Z,75.30
2023-03-26T01:15:21.473Z,74.90
2023-03-26T01:17:34.925Z,74.80
2023-03-26T01:19:51.296Z,74.60
2023-03-26T01:21:58.685Z,74.30
2023-03-26T01:24:09.042Z,74.00
2023-03-26T01:26:34.860Z,73.60
2023-03-26T01:28:43.929Z,73.30
2023-03-26T01:30:59.662Z,72.80
2023-03-26T01:33:15.466Z,72.50
2023-03-26T01:35:33.999Z,72.30
2023-03-26T01:37:49.473Z,71.70
2023-03-26T01:40:07.963Z,71.30
2023-03-26T01:42:18.834Z,71.20
2023-03-26T01:44:34.667Z,70.90
2023-03-26T01:46:42.338Z,70.60
2023-03-26T01:48:50.580Z,70.50
2023-03-26T01:50:59.798Z,70.20
2023-03-26T01:53:06.825Z,69.80
2023-03-26T01:55:16.669Z,69.20
2023-03-26T01:57:36.291Z,68.80
2023-03-26T02:00:12.560Z,68.40
2023-03-26T02:02:28.691Z,66.70
2023-03-26T02:04:43.202Z,66.70
2023-03-26T02:06:54.630Z,66.40
2023-03-26T02:09:04.886Z,65.70
2023-03-26T02:11:16.624Z,63.20
2023-03-26T02:13:24.530Z,64.20
2023-03-26T02:15:31.858Z,63.80
2023-03-26T02:17:41.272Z,63.30
2023-03-26T02:19:49.034Z,63.00
2023-03-26T02:22:00.722Z,61.80
2023-03-26T02:24:11.440Z,60.80
2023-03-26T02:26:22.378Z,58.70
2023-03-26T02:28:38.548Z,59.20
2023-03-26T02:30:46.961Z,59.70
2023-03-26T02:32:56.333Z,58.60
2023-03-26T02:35:03.538Z,57.80
2023-03-26T02:37:11.612Z,57.60
2023-03-26T02:39:21.930Z,56.80
2023-03-26T02:41:40.581Z,56.90
2023-03-26T02:43:51.909Z,57.40
2023-03-26T02:46:02.410Z,55.00
2023-03-26T02:48:37.452Z,55.10
2023-03-26T02:50:59.946Z,55.70
2023-03-26T02:53:33.389Z,56.10
2023-03-26T02:56:01.155Z,56.30
2023-03-26T02:58:18.690Z,56.20
2023-03-26T03:00:26.882Z,55.00
2023-03-26T03:02:34.060Z,54.60
2023-03-26T03:05:02.702Z,54.90
2023-03-26T03:07:15.467Z,54.40
2023-03-26T03:09:23.313Z,54.60
2023-03-26T03:11:48.769Z,54.10
2023-03-26T03:13:57.689Z,54.10
2023-03-26T03:16:06.654Z,53.90
2023-03-26T03:18:14.411Z,53.70
2023-03-26T03:20:23.033Z,53.50
2023-03-26T03:22:30.209Z,53.50
2023-03-26T03:24:37.527Z,52.90
2023-03-26T03:26:46.825Z,52.50
2023-03-26T04:13:29.743Z,46.00
2023-03-26T04:15:58.076Z,46.60
2023-03-26T04:18:05.617Z,47.20
2023-03-26T04:20:16.683Z,46.80
2023-03-26T04:22:37.530Z,46.90
2023-03-26T04:24:49.833Z,46.90
2023-03-26T04:27:10.329Z,46.70
2023-03-26T04:29:25.502Z,46.20
2023-03-26T04:31:32.919Z,46.00
2023-03-26T04:33:42.624Z,46.20
2023-03-26T04:35:50.156Z,46.00
2023-03-26T04:37:58.523Z,45.90
2023-03-26T04:40:12.617Z,45.80
2023-03-26T04:42:31.369Z,45.50
2023-03-26T04:44:53.283Z,45.40
2023-03-26T04:47:01.440Z,45.30
2023-03-26T04:49:23.185Z,45.30
2023-03-26T04:51:36.038Z,45.80
2023-03-26T04:53:43.066Z,45.80
2023-03-26T04:56:09.088Z,44.90
2023-03-26T04:58:36.348Z,45.30
2023-03-26T05:00:45.956Z,45.40
2023-03-26T05:02:55.042Z,44.80
2023-03-26T05:05:03.828Z,44.80
2023-03-26T05:07:13.976Z,44.10
2023-03-26T05:09:26.637Z,43.70
2023-03-26T05:11:52.974Z,43.50
2023-03-26T05:14:01.077Z,43.80
2023-03-26T05:16:10.422Z,43.70
2023-03-26T05:18:20.927Z,42.60
2023-03-26T05:20:32.853Z,42.30
2023-03-26T05:22:41.375Z,42.20
2023-03-26T05:24:58.787Z,42.40
2023-03-26T05:27:06.275Z,42.20
2023-03-26T05:29:14.642Z,42.60
2023-03-26T05:31:28.159Z,41.80
2023-03-26T05:33:37.590Z,39.30
2023-03-26T05:35:51.800Z,41.20
2023-03-26T05:37:58.835Z,40.90
2023-03-26T05:40:12.462Z,40.60
2023-03-26T05:42:28.091Z,39.70
2023-03-26T05:44:55.137Z,40.10
2023-03-26T05:47:08.717Z,39.00
2023-03-26T05:49:16.258Z,39.00
2023-03-26T05:51:24.424Z,39.10
2023-03-26T05:53:41.321Z,39.70
2023-03-26T05:56:00.381Z,39.30
2023-03-26T05:58:30.868Z,39.00
2023-03-26T06:01:03.590Z,39.40
2023-03-26T06:03:24.075Z,39.80
2023-03-26T06:05:57.376Z,40.20
2023-03-26T06:08:20.430Z,40.40
2023-03-26T06:10:30.682Z,40.20
2023-03-26T06:12:38.205Z,39.00
2023-03-26T06:14:46.889Z,40.50
2023-03-26T06:17:06.413Z,40.30
2023-03-26T06:19:35.049Z,39.20
2023-03-26T06:21:50.725Z,38.20
2023-03-26T06:24:04.103Z,39.20
2023-03-26T06:26:26.846Z,39.60
2023-03-26T06:28:57.639Z,39.50
2023-03-26T06:31:27.529Z,39.30
2023-03-26T06:33:51.385Z,40.00
2023-03-26T06:36:00.085Z,39.50
2023-03-26T06:38:08.652Z,39.30
2023-03-26T06:40:16.608Z,39.50
2023-03-26T06:43:07.770Z,39.40
2023-03-26T06:45:20.225Z,39.10
2023-03-26T06:47:45.622Z,39.80
2023-03-26T06:50:19.229Z,39.00
2023-03-26T06:52:56.213Z,39.00
2023-03-26T06:55:22.186Z,38.70
2023-03-26T06:57:46.469Z,38.40
2023-03-26T07:00:12.543Z,38.40
2023-03-26T07:02:39.195Z,38.00
2023-03-26T07:05:04.284Z,38.00
2023-03-26T07:07:34.145Z,37.80
2023-03-26T07:10:13.113Z,37.80
2023-03-26T07:12:52.407Z,37.70
2023-03-26T07:15:19.353Z,37.50
2023-03-26T07:17:50.043Z,38.00
2023-03-26T07:20:06.892Z,36.90
2023-03-26T07:22:21.961Z,38.30
2023-03-26T07:24:41.997Z,37.10
2023-03-26T07:27:09.910Z,37.40
2023-03-26T07:29:25.591Z,37.30
2023-03-26T07:32:12.351Z,36.90
2023-03-26T07:34:44.162Z,36.40
2023-03-26T07:37:22.731Z,37.00
2023-03-26T07:39:59.095Z,36.60
2023-03-26T07:42:37.095Z,36.60
2023-03-26T07:45:06.346Z,36.10
2023-03-26T07:47:37.772Z,36.50
2023-03-26T07:49:58.503Z,36.20
2023-03-26T07:52:26.628Z,36.00
2023-03-26T07:54:45.623Z,36.40
2023-03-26T07:57:17.041Z,36.30
2023-03-26T07:59:55.693Z,36.20
2023-03-26T08:02:39.050Z,36.40
2023-03-26T08:05:20.970Z,36.20
2023-03-26T08:07:48.170Z,36.50
2023-03-26T08:10:10.663Z,36.80
2023-03-26T08:12:40.266Z,36.60
2023-03-26T08:14:57.383Z,36.40
2023-03-26T08:17:13.013Z,36.50
2023-03-26T08:19:36.060Z,36.60
2023-03-26T08:21:48.990Z,35.80
2023-03-26T08:24:04.613Z,36.40
2023-03-26T08:26:18.447Z,36.60
2023-03-26T08:28:36.328Z,36.20
2023-03-26T08:30:45.592Z,35.80
2023-03-26T08:32:58.723Z,36.20
2023-03-26T08:35:06.689Z,36.40
2023-03-26T08:37:13.664Z,36.50
2023-03-26T08:39:21.047Z,36.50
2023-03-26T08:42:04.062Z,36.40
2023-03-26T08:44:51.850Z,35.60
2023-03-26T08:47:42.052Z,35.30
2023-03-26T08:50:18.510Z,36.50
2023-03-26T08:52:59.743Z,35.60
2023-03-26T08:55:45.573Z,36.10
2023-03-26T08:58:24.153Z,35.80
2023-03-26T09:00:57.009Z,36.00
2023-03-26T09:03:23.303Z,35.80
2023-03-26T09:06:08.680Z,35.60
2023-03-26T09:08:54.767Z,35.10
2023-03-26T09:11:45.995Z,35.30
2023-03-26T09:14:32.031Z,35.40
2023-03-26T09:17:06.247Z,36.00
2023-03-26T09:19:47.888Z,35.80
2023-03-26T09:22:18.939Z,35.90
2023-03-26T09:24:58.164Z,36.70
2023-03-26T09:27:18.452Z,35.80
2023-03-26T09:29:58.811Z,36.00
2023-03-26T09:32:49.986Z,35.00
2023-03-26T09:35:29.114Z,34.90
2023-03-26T09:37:57.586Z,35.00
2023-03-26T09:40:19.628Z,35.60
2023-03-26T09:42:35.349Z,35.80
2023-03-26T09:45:19.343Z,35.50
2023-03-26T09:47:46.221Z,34.90
2023-03-26T09:50:03.459Z,34.90
2023-03-26T09:52:38.131Z,35.40
2023-03-26T09:55:25.460Z,34.80
2023-03-26T09:57:59.276Z,34.60
2023-03-26T10:00:21.127Z,35.30
2023-03-26T10:02:48.247Z,35.50
2023-03-26T10:05:23.114Z,35.50
2023-03-26T10:07:50.881Z,35.00
2023-03-26T10:10:04.458Z,34.80
2023-03-26T10:12:18.760Z,34.90
2023-03-26T10:14:32.907Z,35.00
2023-03-26T10:16:55.557Z,34.90
2023-03-26T10:19:14.103Z,35.00
2023-03-26T10:21:28.621Z,35.30
2023-03-26T10:23:58.000Z,35.60
2023-03-26T10:26:19.881Z,35.30
2023-03-26T10:28:40.499Z,35.50
2023-03-26T10:31:08.123Z,34.90
2023-03-26T10:33:26.424Z,35.30
2023-03-26T10:35:47.008Z,35.60
2023-03-26T10:38:10.226Z,35.50
2023-03-26T10:40:29.286Z,35.80
2023-03-26T10:42:51.213Z,36.10
2023-03-26T10:45:38.279Z,36.30
2023-03-26T10:48:30.864Z,36.30
2023-03-26T10:50:55.414Z,36.50
2023-03-26T10:53:05.771Z,37.30
2023-03-26T10:55:19.504Z,37.30
2023-03-26T10:57:44.305Z,37.50
2023-03-26T10:59:51.358Z,37.80
2023-03-26T11:02:07.878Z,38.40
2023-03-26T11:04:26.584Z,38.70
2023-03-26T11:06:42.434Z,38.90
2023-03-26T11:08:57.693Z,39.90
2023-03-26T11:11:16.704Z,40.70
2023-03-26T11:13:38.170Z,41.00
2023-03-26T11:15:49.605Z,41.70
2023-03-26T11:18:09.696Z,41.80
2023-03-26T11:20:23.318Z,43.20
2023-03-26T11:22:38.894Z,43.40
2023-03-26T11:25:29.341Z,43.90
2023-03-26T11:27:47.842Z,45.20
2023-03-26T11:30:07.058Z,45.00
2023-03-26T11:32:16.754Z,45.80
2023-03-26T11:34:30.631Z,44.90
2023-03-26T11:36:42.574Z,45.10
2023-03-26T11:38:52.420Z,45.00
2023-03-26T11:41:07.540Z,45.50
2023-03-26T11:43:43.493Z,45.90
2023-03-26T11:45:54.831Z,45.70
2023-03-26T11:48:09.243Z,45.60
2023-03-26T11:50:23.693Z,45.90
2023-03-26T11:52:32.602Z,45.90
2023-03-26T11:54:39.989Z,45.90
2023-03-26T11:57:05.089Z,45.90
2023-03-26T11:59:18.781Z,46.60
2023-03-26T12:01:31.429Z,47.70
2023-03-26T12:03:39.223Z,47.00
2023-03-26T12:05:52.647Z,46.80
2023-03-26T12:08:01.221Z,46.80
2023-03-26T12:10:19.026Z,46.80
2023-03-26T12:12:30.115Z,46.90
2023-03-26T12:14:39.036Z,46.90
2023-03-26T12:17:01.654Z,47.40
2023-03-26T12:19:21.917Z,47.60
2023-03-26T12:21:29.564Z,48.20
2023-03-26T12:23:45.291Z,48.30
2023-03-26T12:26:15.367Z,48.60
2023-03-26T12:28:23.616Z,48.50
2023-03-26T12:30:32.116Z,48.30
2023-03-26T12:32:46.951Z,48.10
2023-03-26T12:34:54.632Z,48.20
2023-03-26T12:37:02.786Z,48.00
2023-03-26T12:40:09.271Z,48.60
2023-03-26T12:44:49.934Z,49.30
2023-03-26T12:44:51.450Z,49.30
2023-03-26T12:47:56.987Z,49.60
2023-03-26T12:49:43.266Z,49.30
2023-03-26T12:51:53.468Z,50.30
2023-03-26T12:54:19.288Z,49.80
2023-03-26T12:56:39.457Z,49.80
2023-03-26T12:59:05.196Z,49.30
2023-03-26T13:01:20.945Z,49.50
2023-03-26T13:03:42.938Z,49.50
2023-03-26T13:05:59.041Z,49.20
2023-03-26T13:08:24.334Z,49.80
2023-03-26T13:10:53.046Z,49.60
2023-03-26T13:13:12.658Z,49.60
2023-03-26T13:15:25.676Z,50.20
2023-03-26T13:17:39.088Z,50.30
2023-03-26T13:19:55.506Z,50.50
2023-03-26T13:22:20.403Z,50.60
2023-03-26T13:24:41.571Z,50.30
2023-03-26T13:27:01.745Z,50.10
2023-03-26T13:29:16.967Z,50.30
2023-03-26T13:31:28.400Z,50.00
2023-03-26T13:33:43.669Z,50.50
2023-03-26T13:36:10.268Z,50.80
2023-03-26T13:38:32.952Z,50.80
2023-03-26T13:40:50.222Z,50.90
2023-03-26T13:43:18.243Z,51.30
2023-03-26T13:45:39.709Z,51.70
2023-03-26T13:47:49.987Z,51.50
2023-03-26T13:50:02.824Z,51.40
2023-03-26T13:52:15.281Z,51.80
2023-03-26T13:54:30.924Z,52.10
2023-03-26T13:56:44.792Z,52.50
2023-03-26T13:58:55.361Z,52.90
2023-03-26T14:01:08.333Z,53.60
2023-03-26T14:03:23.862Z,54.30
2023-03-26T14:05:38.352Z,54.60
2023-03-26T14:07:49.600Z,54.70
2023-03-26T14:10:01.991Z,55.40
2023-03-26T14:12:31.749Z,55.30
2023-03-26T14:14:44.524Z,55.30
2023-03-26T14:16:54.201Z,55.20
2023-03-26T14:19:14.902Z,56.10
2023-03-26T14:21:55.979Z,56.50
2023-03-26T14:24:48.525Z,57.60
2023-03-26T14:27:14.184Z,57.60
2023-03-26T14:29:56.788Z,57.40
2023-03-26T14:32:32.203Z,58.70
2023-03-26T14:34:54.525Z,58.80
2023-03-26T14:37:27.474Z,58.20
2023-03-26T14:39:53.268Z,58.60
2023-03-26T14:42:09.779Z,58.30
2023-03-26T14:44:48.340Z,58.80
2023-03-26T14:47:16.808Z,59.50
2023-03-26T14:49:57.246Z,60.00
2023-03-26T16:14:18.564Z,66.90
2023-03-26T19:29:21.389Z,79.30
2023-03-26T19:33:13.200Z,79.40
2023-03-26T19:39:39.888Z,78.90
2023-03-26T22:40:25.095Z,88.10
2023-03-26T22:43:53.789Z,88.50
2023-03-26T22:49:47.937Z,88.80
